createdAt,value
2018-06-21T00:00:01.236Z,10.70
2018-06-21T00:00:32.412Z,10.77
2018-06-21T00:01:03.585Z,10.67
2018-06-21T00:01:34.810Z,10.87
2018-06-21T00:02:06.004Z,10.20
2018-06-21T00:02:37.176Z,10.30
2018-06-21T00:03:08.349Z,10.47
2018-06-21T00:03:39.526Z,10.83
2018-06-21T00:04:10.756Z,10.07
2018-06-21T00:04:42.001Z,10.50
2018-06-21T00:05:13.180Z,10.00
2018-06-21T00:05:44.396Z,11.03
2018-06-21T00:06:15.626Z,10.70
2018-06-21T00:06:46.829Z,10.90
2018-06-21T00:07:18.008Z,10.80
2018-06-21T00:07:50.009Z,10.63
2018-06-21T00:08:21.258Z,10.33
2018-06-21T00:08:52.482Z,10.07
2018-06-21T00:09:23.673Z,9.93
2018-06-21T00:09:54.848Z,10.57
2018-06-21T00:10:27.195Z,10.30
2018-06-21T00:10:59.564Z,10.43
2018-06-21T00:11:33.522Z,10.77
2018-06-21T00:12:04.694Z,10.43
2018-06-21T00:12:35.926Z,9.93
2018-06-21T00:13:07.159Z,10.20
2018-06-21T00:13:38.442Z,10.77
2018-06-21T00:14:09.678Z,10.43
2018-06-21T00:14:40.868Z,10.27
2018-06-21T00:15:12.098Z,10.13
2018-06-21T00:15:43.288Z,11.07
2018-06-21T00:16:14.511Z,10.77
2018-06-21T00:16:45.685Z,10.63
2018-06-21T00:17:16.923Z,10.43
2018-06-21T00:17:48.101Z,10.73
2018-06-21T00:18:19.309Z,10.43
2018-06-21T00:18:50.529Z,10.70
2018-06-21T00:19:21.765Z,10.60
2018-06-21T00:19:52.994Z,10.97
2018-06-21T00:20:24.221Z,10.70
2018-06-21T00:20:55.453Z,10.13
2018-06-21T00:21:26.633Z,9.93
2018-06-21T00:21:57.810Z,10.73
2018-06-21T00:22:28.986Z,9.93
2018-06-21T00:23:00.152Z,10.27
2018-06-21T00:23:31.376Z,10.53
2018-06-21T00:24:02.606Z,9.33
2018-06-21T00:24:33.833Z,10.03
2018-06-21T00:25:05.056Z,9.90
2018-06-21T00:25:36.232Z,9.57
2018-06-21T00:26:07.406Z,9.93
2018-06-21T00:26:38.580Z,10.00
2018-06-21T00:27:10.172Z,9.60
2018-06-21T00:27:41.340Z,9.60
2018-06-21T00:28:12.560Z,9.13
2018-06-21T00:28:43.783Z,10.10
2018-06-21T00:29:14.989Z,9.50
2018-06-21T00:29:46.212Z,9.63
2018-06-21T00:30:17.394Z,9.73
2018-06-21T00:30:48.639Z,9.50
2018-06-21T00:31:19.847Z,9.60
2018-06-21T00:31:51.076Z,9.97
2018-06-21T00:32:22.316Z,9.77
2018-06-21T00:32:53.501Z,9.87
2018-06-21T00:33:24.668Z,9.53
2018-06-21T00:33:55.836Z,9.50
2018-06-21T00:34:27.052Z,9.83
2018-06-21T00:34:58.229Z,9.03
2018-06-21T00:35:29.458Z,9.27
2018-06-21T00:36:00.641Z,9.33
2018-06-21T00:36:31.860Z,9.97
2018-06-21T00:37:03.046Z,9.35
2018-06-21T00:37:34.228Z,9.50
2018-06-21T00:38:05.405Z,9.87
2018-06-21T00:38:36.583Z,9.13
2018-06-21T00:39:07.764Z,9.67
2018-06-21T00:39:38.952Z,9.30
2018-06-21T00:40:10.116Z,8.27
2018-06-21T00:40:41.338Z,9.70
2018-06-21T00:41:12.526Z,9.03
2018-06-21T00:41:43.765Z,9.30
2018-06-21T00:42:14.946Z,8.40
2018-06-21T00:42:46.133Z,8.97
2018-06-21T00:43:17.352Z,9.03
2018-06-21T00:43:48.536Z,8.80
2018-06-21T00:44:19.708Z,8.60
2018-06-21T00:44:50.882Z,9.10
2018-06-21T00:45:22.055Z,9.40
2018-06-21T00:45:53.267Z,9.17
2018-06-21T00:46:24.481Z,9.20
2018-06-21T00:46:55.710Z,8.90
2018-06-21T00:47:26.901Z,8.93
2018-06-21T00:47:58.125Z,9.00
2018-06-21T00:48:29.352Z,8.70
2018-06-21T00:49:00.532Z,8.83
2018-06-21T00:49:31.709Z,9.40
2018-06-21T00:50:02.937Z,9.03
2018-06-21T00:50:34.124Z,8.67
2018-06-21T00:51:05.352Z,8.90
2018-06-21T00:51:36.533Z,9.30
2018-06-21T00:52:07.753Z,8.53
2018-06-21T00:52:38.974Z,9.17
2018-06-21T00:53:10.201Z,8.53
2018-06-21T00:53:41.441Z,9.35
2018-06-21T00:54:12.643Z,8.23
2018-06-21T00:54:43.816Z,8.40
2018-06-21T00:55:15.053Z,9.17
2018-06-21T00:55:46.223Z,8.60
2018-06-21T00:56:17.396Z,8.43
2018-06-21T00:56:48.621Z,9.15
2018-06-21T00:57:19.893Z,8.90
2018-06-21T00:57:51.074Z,8.73
2018-06-21T00:58:22.288Z,9.17
2018-06-21T00:58:53.452Z,8.30
2018-06-21T00:59:24.680Z,8.30
2018-06-21T00:59:55.859Z,9.20
2018-06-21T01:00:27.077Z,8.40
2018-06-21T01:00:58.260Z,8.77
2018-06-21T01:01:29.477Z,8.87
2018-06-21T01:02:00.720Z,8.97
2018-06-21T01:02:31.899Z,9.53
2018-06-21T01:03:03.113Z,8.60
2018-06-21T01:03:34.288Z,8.83
2018-06-21T01:04:05.460Z,8.30
2018-06-21T01:04:36.629Z,8.53
2018-06-21T01:05:07.800Z,8.97
2018-06-21T01:05:38.982Z,8.53
2018-06-21T01:06:10.155Z,8.63
2018-06-21T01:06:41.424Z,8.93
2018-06-21T01:07:12.609Z,8.50
2018-06-21T01:07:43.775Z,8.50
2018-06-21T01:08:14.935Z,8.50
2018-06-21T01:08:46.159Z,8.33
2018-06-21T01:09:17.400Z,9.40
2018-06-21T01:09:48.617Z,8.57
2018-06-21T01:10:19.794Z,8.70
2018-06-21T01:10:50.956Z,8.53
2018-06-21T01:11:22.141Z,8.80
2018-06-21T01:11:53.372Z,9.10
2018-06-21T01:12:24.581Z,8.70
2018-06-21T01:12:55.756Z,9.20
2018-06-21T01:13:26.928Z,9.27
2018-06-21T01:13:58.098Z,8.95
2018-06-21T01:14:29.272Z,9.17
2018-06-21T01:15:00.452Z,9.58
2018-06-21T01:15:31.684Z,9.63
2018-06-21T01:16:02.861Z,9.48
2018-06-21T01:16:34.092Z,9.63
2018-06-21T01:17:05.280Z,9.48
2018-06-21T01:17:36.456Z,9.20
2018-06-21T01:18:07.681Z,9.50
2018-06-21T01:18:38.920Z,9.77
2018-06-21T01:19:10.105Z,9.50
2018-06-21T01:19:41.337Z,9.68
2018-06-21T01:20:12.580Z,9.38
2018-06-21T01:20:43.813Z,9.40
2018-06-21T01:21:14.998Z,9.70
2018-06-21T01:21:46.177Z,9.65
2018-06-21T01:22:17.375Z,10.10
2018-06-21T01:22:48.602Z,10.13
2018-06-21T01:23:19.788Z,10.08
2018-06-21T01:23:51.013Z,10.20
2018-06-21T01:24:22.249Z,10.68
2018-06-21T01:24:53.436Z,10.70
2018-06-21T01:25:24.686Z,10.98
2018-06-21T01:25:55.896Z,11.15
2018-06-21T01:26:27.068Z,10.90
2018-06-21T01:26:58.280Z,11.13
2018-06-21T01:27:29.456Z,11.13
2018-06-21T01:28:00.643Z,11.25
2018-06-21T01:28:31.882Z,11.00
2018-06-21T01:29:03.161Z,10.88
2018-06-21T01:29:34.348Z,10.70
2018-06-21T01:30:05.534Z,11.60
2018-06-21T01:30:36.768Z,10.93
2018-06-21T01:31:08.013Z,11.73
2018-06-21T01:31:39.192Z,12.33
2018-06-21T01:32:10.372Z,11.43
2018-06-21T01:32:41.598Z,11.85
2018-06-21T01:33:12.820Z,11.88
2018-06-21T01:33:44.053Z,10.78
2018-06-21T01:34:15.245Z,11.43
2018-06-21T01:34:46.484Z,11.18
2018-06-21T01:35:17.705Z,11.47
2018-06-21T01:35:48.903Z,11.00
2018-06-21T01:36:20.133Z,11.80
2018-06-21T01:36:51.372Z,11.17
2018-06-21T01:37:22.552Z,11.15
2018-06-21T01:37:53.785Z,11.40
2018-06-21T01:38:25.021Z,11.48
2018-06-21T01:38:56.205Z,11.90
2018-06-21T01:39:27.394Z,11.53
2018-06-21T01:39:58.634Z,11.40
2018-06-21T01:40:29.865Z,11.10
2018-06-21T01:41:01.044Z,11.48
2018-06-21T01:41:32.286Z,11.40
2018-06-21T01:42:03.477Z,12.80
2018-06-21T01:42:34.648Z,11.90
2018-06-21T01:43:05.936Z,11.63
2018-06-21T01:43:37.125Z,11.73
2018-06-21T01:44:08.305Z,11.53
2018-06-21T01:44:39.485Z,11.25
2018-06-21T01:45:10.668Z,10.95
2018-06-21T01:45:41.840Z,11.10
2018-06-21T01:46:13.034Z,11.20
2018-06-21T01:46:44.263Z,11.15
2018-06-21T01:47:15.450Z,10.55
2018-06-21T01:47:46.660Z,9.95
2018-06-21T01:48:17.833Z,9.95
2018-06-21T01:48:49.078Z,10.35
2018-06-21T01:49:20.260Z,9.00
2018-06-21T01:49:51.440Z,9.50
2018-06-21T01:50:22.620Z,9.50
2018-06-21T01:50:53.861Z,8.83
2018-06-21T01:51:25.088Z,9.23
2018-06-21T01:51:56.260Z,9.08
2018-06-21T01:52:27.436Z,9.00
2018-06-21T01:52:58.626Z,8.58
2018-06-21T01:53:29.855Z,8.60
2018-06-21T01:54:01.090Z,9.23
2018-06-21T01:54:32.271Z,8.45
2018-06-21T01:55:03.446Z,8.70
2018-06-21T01:55:34.627Z,8.63
2018-06-21T01:56:05.868Z,9.03
2018-06-21T01:56:37.057Z,9.15
2018-06-21T01:57:08.249Z,8.50
2018-06-21T01:57:39.472Z,9.00
2018-06-21T01:58:10.657Z,8.77
2018-06-21T01:58:41.876Z,8.78
2018-06-21T01:59:13.109Z,9.05
2018-06-21T01:59:44.344Z,9.47
2018-06-21T02:00:15.578Z,9.08
2018-06-21T02:00:46.861Z,8.80
2018-06-21T02:01:18.044Z,8.73
2018-06-21T02:01:49.224Z,9.00
2018-06-21T02:02:20.405Z,8.60
2018-06-21T02:02:51.582Z,8.25
2018-06-21T02:03:22.773Z,8.40
2018-06-21T02:03:54.103Z,8.23
2018-06-21T02:04:25.298Z,8.15
2018-06-21T02:04:56.527Z,8.05
2018-06-21T02:05:27.714Z,8.15
2018-06-21T02:05:58.887Z,9.03
2018-06-21T02:06:30.065Z,8.98
2018-06-21T02:07:01.236Z,8.90
2018-06-21T02:07:32.476Z,8.73
2018-06-21T02:08:04.531Z,8.55
2018-06-21T02:08:35.747Z,8.35
2018-06-21T02:09:06.930Z,8.88
2018-06-21T02:09:38.112Z,8.40
2018-06-21T02:10:09.343Z,8.75
2018-06-21T02:10:40.544Z,8.23
2018-06-21T02:11:11.751Z,8.70
2018-06-21T02:11:42.924Z,8.35
2018-06-21T02:12:14.100Z,8.25
2018-06-21T02:12:45.320Z,8.55
2018-06-21T02:13:16.540Z,8.28
2018-06-21T02:13:47.724Z,7.93
2018-06-21T02:14:18.954Z,8.73
2018-06-21T02:14:50.142Z,8.13
2018-06-21T02:15:21.374Z,8.65
2018-06-21T02:15:52.604Z,9.03
2018-06-21T02:16:23.836Z,8.75
2018-06-21T02:16:55.024Z,8.50
2018-06-21T02:17:26.201Z,8.28
2018-06-21T02:17:57.381Z,8.20
2018-06-21T02:18:28.661Z,8.85
2018-06-21T02:18:59.896Z,8.85
2018-06-21T02:19:31.076Z,8.68
2018-06-21T02:20:02.310Z,8.83
2018-06-21T02:20:33.536Z,8.98
2018-06-21T02:21:04.772Z,8.85
2018-06-21T02:21:35.960Z,9.05
2018-06-21T02:22:07.132Z,9.00
2018-06-21T02:22:38.368Z,9.18
2018-06-21T02:23:09.552Z,8.90
2018-06-21T02:23:40.836Z,8.68
2018-06-21T02:24:12.057Z,9.18
2018-06-21T02:24:43.290Z,9.03
2018-06-21T02:25:14.531Z,9.20
2018-06-21T02:25:45.766Z,9.30
2018-06-21T02:26:16.953Z,9.25
2018-06-21T02:26:48.133Z,9.35
2018-06-21T02:27:19.304Z,9.20
2018-06-21T02:27:50.589Z,9.05
2018-06-21T02:28:21.777Z,8.73
2018-06-21T02:28:52.952Z,9.55
2018-06-21T02:29:24.135Z,9.55
2018-06-21T02:29:55.313Z,9.80
2018-06-21T02:30:26.507Z,9.33
2018-06-21T02:30:57.759Z,9.05
2018-06-21T02:31:29.041Z,10.30
2018-06-21T02:32:00.230Z,9.70
2018-06-21T02:32:31.455Z,9.63
2018-06-21T02:33:02.696Z,9.08
2018-06-21T02:33:33.885Z,9.38
2018-06-21T02:34:05.076Z,9.70
2018-06-21T02:34:36.269Z,10.30
2018-06-21T02:35:07.449Z,10.15
2018-06-21T02:35:38.678Z,9.98
2018-06-21T02:36:09.918Z,9.98
2018-06-21T02:36:41.101Z,9.78
2018-06-21T02:37:12.372Z,9.73
2018-06-21T02:37:43.560Z,10.13
2018-06-21T02:38:14.738Z,9.70
2018-06-21T02:38:45.914Z,9.83
2018-06-21T02:39:17.108Z,9.70
2018-06-21T02:39:48.329Z,9.85
2018-06-21T02:40:19.510Z,10.30
2018-06-21T02:40:50.746Z,9.70
2018-06-21T02:41:21.977Z,10.23
2018-06-21T02:41:53.161Z,10.08
2018-06-21T02:42:24.336Z,10.08
2018-06-21T02:42:55.554Z,9.88
2018-06-21T02:43:26.744Z,10.28
2018-06-21T02:43:57.968Z,9.90
2018-06-21T02:44:29.199Z,10.25
2018-06-21T02:45:00.397Z,10.28
2018-06-21T02:45:31.625Z,9.80
2018-06-21T02:46:02.800Z,10.15
2018-06-21T02:46:33.986Z,10.03
2018-06-21T02:47:05.157Z,10.50
2018-06-21T02:47:36.345Z,10.45
2018-06-21T02:48:07.584Z,9.90
2018-06-21T02:48:38.778Z,10.70
2018-06-21T02:49:09.956Z,10.58
2018-06-21T02:49:41.135Z,10.10
2018-06-21T02:50:12.362Z,10.53
2018-06-21T02:50:43.585Z,10.30
2018-06-21T02:51:14.810Z,10.00
2018-06-21T02:51:46.045Z,9.85
2018-06-21T02:52:17.241Z,10.20
2018-06-21T02:52:48.473Z,9.88
2018-06-21T02:53:19.656Z,9.85
2018-06-21T02:53:50.936Z,9.78
2018-06-21T02:54:22.117Z,9.90
2018-06-21T02:54:53.348Z,9.78
2018-06-21T02:55:24.525Z,10.50
2018-06-21T02:55:55.736Z,10.55
2018-06-21T02:56:26.965Z,10.78
2018-06-21T02:56:58.164Z,10.38
2018-06-21T02:57:29.388Z,9.98
2018-06-21T02:58:00.572Z,10.65
2018-06-21T02:58:31.758Z,10.05
2018-06-21T02:59:02.988Z,10.45
2018-06-21T02:59:34.173Z,10.53
2018-06-21T03:00:05.421Z,9.90
2018-06-21T03:00:36.658Z,9.45
2018-06-21T03:01:07.849Z,9.70
2018-06-21T03:01:39.015Z,9.48
2018-06-21T03:02:10.209Z,10.43
2018-06-21T03:02:41.392Z,9.78
2018-06-21T03:03:12.565Z,10.05
2018-06-21T03:03:43.798Z,10.05
2018-06-21T03:04:15.079Z,10.05
2018-06-21T03:04:46.266Z,9.78
2018-06-21T03:05:17.500Z,9.75
2018-06-21T03:05:48.743Z,9.80
2018-06-21T03:06:19.939Z,10.08
2018-06-21T03:06:51.118Z,10.40
2018-06-21T03:07:22.356Z,9.88
2018-06-21T03:07:53.590Z,10.30
2018-06-21T03:08:24.870Z,9.83
2018-06-21T03:08:56.058Z,9.45
2018-06-21T03:09:27.276Z,9.83
2018-06-21T03:09:58.488Z,9.65
2018-06-21T03:10:29.670Z,10.32
2018-06-21T03:11:00.853Z,10.00
2018-06-21T03:11:32.041Z,9.63
2018-06-21T03:12:03.213Z,9.93
2018-06-21T03:12:34.445Z,9.70
2018-06-21T03:13:05.637Z,10.30
2018-06-21T03:13:36.814Z,9.38
2018-06-21T03:14:08.050Z,10.50
2018-06-21T03:14:39.301Z,9.58
2018-06-21T03:15:10.542Z,9.53
2018-06-21T03:15:41.785Z,9.40
2018-06-21T03:16:13.025Z,9.58
2018-06-21T03:16:44.212Z,9.90
2018-06-21T03:17:15.395Z,9.55
2018-06-21T03:17:46.576Z,9.77
2018-06-21T03:18:17.759Z,8.93
2018-06-21T03:18:48.936Z,9.85
2018-06-21T03:19:20.321Z,9.30
2018-06-21T03:19:51.607Z,9.75
2018-06-21T03:20:22.842Z,10.00
2018-06-21T03:20:54.074Z,10.13
2018-06-21T03:21:25.295Z,9.80
2018-06-21T03:21:56.558Z,9.90
2018-06-21T03:22:27.740Z,9.70
2018-06-21T03:22:58.971Z,9.73
2018-06-21T03:23:30.156Z,9.57
2018-06-21T03:24:01.341Z,9.47
2018-06-21T03:24:32.514Z,10.37
2018-06-21T03:25:03.725Z,9.60
2018-06-21T03:25:34.906Z,10.50
2018-06-21T03:26:06.120Z,9.90
2018-06-21T03:26:37.341Z,9.87
2018-06-21T03:27:08.520Z,9.70
2018-06-21T03:27:39.748Z,8.97
2018-06-21T03:28:10.936Z,9.97
2018-06-21T03:28:42.442Z,9.03
2018-06-21T03:29:13.784Z,8.90
2018-06-21T03:29:45.009Z,9.33
2018-06-21T03:30:16.233Z,9.60
2018-06-21T03:30:47.436Z,9.30
2018-06-21T03:31:18.608Z,8.97
2018-06-21T03:31:49.782Z,8.60
2018-06-21T03:32:20.952Z,9.40
2018-06-21T03:32:52.125Z,9.47
2018-06-21T03:33:23.299Z,8.90
2018-06-21T03:33:54.484Z,9.27
2018-06-21T03:34:25.704Z,9.20
2018-06-21T03:34:56.881Z,9.23
2018-06-21T03:35:28.113Z,9.27
2018-06-21T03:35:59.280Z,9.67
2018-06-21T03:36:30.461Z,9.47
2018-06-21T03:37:01.690Z,9.63
2018-06-21T03:37:32.913Z,9.70
2018-06-21T03:38:04.093Z,8.93
2018-06-21T03:38:35.260Z,9.33
2018-06-21T03:39:06.485Z,8.80
2018-06-21T03:39:37.669Z,9.13
2018-06-21T03:40:08.893Z,9.07
2018-06-21T03:40:40.122Z,9.50
2018-06-21T03:41:11.300Z,9.23
2018-06-21T03:41:42.521Z,8.67
2018-06-21T03:42:13.755Z,9.03
2018-06-21T03:42:44.996Z,9.30
2018-06-21T03:43:16.241Z,9.07
2018-06-21T03:43:47.422Z,9.00
2018-06-21T03:44:18.598Z,8.97
2018-06-21T03:44:49.777Z,8.90
2018-06-21T03:45:21.031Z,8.87
2018-06-21T03:45:52.252Z,9.13
2018-06-21T03:46:23.426Z,9.20
2018-06-21T03:46:54.600Z,9.00
2018-06-21T03:47:25.770Z,8.70
2018-06-21T03:47:56.941Z,9.70
2018-06-21T03:48:28.161Z,9.27
2018-06-21T03:48:59.393Z,9.13
2018-06-21T03:49:30.618Z,8.87
2018-06-21T03:50:01.804Z,9.30
2018-06-21T03:50:32.975Z,8.83
2018-06-21T03:51:04.242Z,8.17
2018-06-21T03:51:35.428Z,9.40
2018-06-21T03:52:06.611Z,8.20
2018-06-21T03:52:37.784Z,8.20
2018-06-21T03:53:08.988Z,8.33
2018-06-21T03:53:40.156Z,8.73
2018-06-21T03:54:11.328Z,8.63
2018-06-21T03:54:42.597Z,8.57
2018-06-21T03:55:13.773Z,8.10
2018-06-21T03:55:45.001Z,8.37
2018-06-21T03:56:16.237Z,8.57
2018-06-21T03:56:47.404Z,8.23
2018-06-21T03:57:18.580Z,8.53
2018-06-21T03:57:49.761Z,8.80
2018-06-21T03:58:20.989Z,8.37
2018-06-21T03:58:52.168Z,8.67
2018-06-21T03:59:23.344Z,8.23
2018-06-21T03:59:54.519Z,8.53
2018-06-21T04:00:25.708Z,8.80
2018-06-21T04:00:56.886Z,8.40
2018-06-21T04:01:28.100Z,8.90
2018-06-21T04:01:59.284Z,8.30
2018-06-21T04:02:30.509Z,8.30
2018-06-21T04:03:01.698Z,8.53
2018-06-21T04:03:32.876Z,8.80
2018-06-21T04:04:04.089Z,8.67
2018-06-21T04:04:35.268Z,9.03
2018-06-21T04:05:06.446Z,9.00
2018-06-21T04:05:37.672Z,8.77
2018-06-21T04:06:08.891Z,8.90
2018-06-21T04:06:40.068Z,9.00
2018-06-21T04:07:11.275Z,8.53
2018-06-21T04:07:42.445Z,8.80
2018-06-21T04:08:13.616Z,9.10
2018-06-21T04:08:44.849Z,8.97
2018-06-21T04:09:16.027Z,8.67
2018-06-21T04:09:47.208Z,8.77
2018-06-21T04:10:18.384Z,8.53
2018-06-21T04:10:49.556Z,8.70
2018-06-21T04:11:20.776Z,8.60
2018-06-21T04:11:51.950Z,9.07
2018-06-21T04:12:23.185Z,8.77
2018-06-21T04:12:54.365Z,9.63
2018-06-21T04:13:25.605Z,9.07
2018-06-21T04:13:56.805Z,8.80
2018-06-21T04:14:27.991Z,9.20
2018-06-21T04:14:59.168Z,9.13
2018-06-21T04:15:30.337Z,8.67
2018-06-21T04:16:01.549Z,9.13
2018-06-21T04:16:32.720Z,8.67
2018-06-21T04:17:03.892Z,8.53
2018-06-21T04:17:35.089Z,9.50
2018-06-21T04:18:06.337Z,9.57
2018-06-21T04:18:37.569Z,9.13
2018-06-21T04:19:08.744Z,8.97
2018-06-21T04:19:40.028Z,10.27
2018-06-21T04:20:11.274Z,8.93
2018-06-21T04:20:42.526Z,9.03
2018-06-21T04:21:13.710Z,9.73
2018-06-21T04:21:44.880Z,9.20
2018-06-21T04:22:16.101Z,9.60
2018-06-21T04:22:47.994Z,8.87
2018-06-21T04:23:19.265Z,8.90
2018-06-21T04:23:50.484Z,9.30
2018-06-21T04:24:21.762Z,9.07
2018-06-21T04:24:53.001Z,8.60
2018-06-21T04:25:24.181Z,8.17
2018-06-21T04:25:55.357Z,9.00
2018-06-21T04:26:26.589Z,8.80
2018-06-21T04:26:57.777Z,8.47
2018-06-21T04:27:29.001Z,8.83
2018-06-21T04:28:00.182Z,8.47
2018-06-21T04:28:31.372Z,9.43
2018-06-21T04:29:02.601Z,9.13
2018-06-21T04:29:33.824Z,8.90
2018-06-21T04:30:05.049Z,9.70
2018-06-21T04:30:36.284Z,8.53
2018-06-21T04:31:07.470Z,9.20
2018-06-21T04:31:38.713Z,8.90
2018-06-21T04:32:09.960Z,8.60
2018-06-21T04:32:42.159Z,9.10
2018-06-21T04:33:13.344Z,8.73
2018-06-21T04:33:44.533Z,9.10
2018-06-21T04:34:15.748Z,9.00
2018-06-21T04:34:46.975Z,9.00
2018-06-21T04:35:18.165Z,9.00
2018-06-21T04:35:49.341Z,8.87
2018-06-21T04:36:20.576Z,8.80
2018-06-21T04:36:51.812Z,8.80
2018-06-21T04:37:23.045Z,9.67
2018-06-21T04:37:54.257Z,9.27
2018-06-21T04:38:25.505Z,8.23
2018-06-21T04:38:56.757Z,9.40
2018-06-21T04:39:27.948Z,9.07
2018-06-21T04:39:59.172Z,8.83
2018-06-21T04:40:30.346Z,8.40
2018-06-21T04:41:01.529Z,8.80
2018-06-21T04:41:32.705Z,9.30
2018-06-21T04:42:03.884Z,8.63
2018-06-21T04:42:35.064Z,9.23
2018-06-21T04:43:06.235Z,9.37
2018-06-21T04:43:37.404Z,8.57
2018-06-21T04:44:08.590Z,9.00
2018-06-21T04:44:39.776Z,9.60
2018-06-21T04:45:11.056Z,8.93
2018-06-21T04:45:42.244Z,9.27
2018-06-21T04:46:13.520Z,9.03
2018-06-21T04:46:44.757Z,8.60
2018-06-21T04:47:15.948Z,8.30
2018-06-21T04:47:47.174Z,9.10
2018-06-21T04:48:18.413Z,8.77
2018-06-21T04:48:49.649Z,8.97
2018-06-21T04:49:20.909Z,8.87
2018-06-21T04:49:52.102Z,8.47
2018-06-21T04:50:23.282Z,9.03
2018-06-21T04:50:54.468Z,8.77
2018-06-21T04:51:25.692Z,8.87
2018-06-21T04:51:56.856Z,8.70
2018-06-21T04:52:28.031Z,9.17
2018-06-21T04:52:59.205Z,8.80
2018-06-21T04:53:30.376Z,8.57
2018-06-21T04:54:01.558Z,8.30
2018-06-21T04:54:32.741Z,8.57
2018-06-21T04:55:03.969Z,9.00
2018-06-21T04:55:35.205Z,8.53
2018-06-21T04:56:07.677Z,8.93
2018-06-21T04:56:38.976Z,8.70
2018-06-21T04:57:10.229Z,8.47
2018-06-21T04:57:41.469Z,8.73
2018-06-21T04:58:12.706Z,8.67
2018-06-21T04:58:43.942Z,9.13
2018-06-21T04:59:15.183Z,8.60
2018-06-21T04:59:46.376Z,8.80
2018-06-21T05:00:17.554Z,8.60
2018-06-21T05:00:48.780Z,8.57
2018-06-21T05:01:19.960Z,8.40
2018-06-21T05:01:51.182Z,8.67
2018-06-21T05:02:22.369Z,8.70
2018-06-21T05:02:53.492Z,8.57
2018-06-21T05:03:24.672Z,8.30
2018-06-21T05:03:55.853Z,8.80
2018-06-21T05:04:27.090Z,9.40
2018-06-21T05:04:58.258Z,8.90
2018-06-21T05:05:29.488Z,9.00
2018-06-21T05:06:00.671Z,9.57
2018-06-21T05:06:31.871Z,8.97
2018-06-21T05:07:03.094Z,8.97
2018-06-21T05:07:34.284Z,9.17
2018-06-21T05:08:05.506Z,8.90
2018-06-21T05:08:36.690Z,8.80
2018-06-21T05:09:07.874Z,9.40
2018-06-21T05:09:39.041Z,9.07
2018-06-21T05:10:10.204Z,8.50
2018-06-21T05:10:41.370Z,9.00
2018-06-21T05:11:13.463Z,8.30
2018-06-21T05:11:44.633Z,8.28
2018-06-21T05:12:15.842Z,8.80
2018-06-21T05:12:47.015Z,8.17
2018-06-21T05:13:18.236Z,8.20
2018-06-21T05:13:49.496Z,8.75
2018-06-21T05:14:20.667Z,8.65
2018-06-21T05:14:51.839Z,8.20
2018-06-21T05:15:23.020Z,8.40
2018-06-21T05:15:54.192Z,8.75
2018-06-21T05:16:25.377Z,8.30
2018-06-21T05:16:56.604Z,8.20
2018-06-21T05:17:27.793Z,7.72
2018-06-21T05:17:58.976Z,7.80
2018-06-21T05:18:30.197Z,8.78
2018-06-21T05:19:01.378Z,7.75
2018-06-21T05:19:32.549Z,8.00
2018-06-21T05:20:03.785Z,7.75
2018-06-21T05:20:34.973Z,7.35
2018-06-21T05:21:06.209Z,7.75
2018-06-21T05:21:37.435Z,7.53
2018-06-21T05:22:08.620Z,7.80
2018-06-21T05:22:39.801Z,7.47
2018-06-21T05:23:11.065Z,7.42
2018-06-21T05:23:42.248Z,8.30
2018-06-21T05:24:13.428Z,7.70
2018-06-21T05:24:44.606Z,7.70
2018-06-21T05:25:15.796Z,8.10
2018-06-21T05:25:46.973Z,7.42
2018-06-21T05:26:18.160Z,8.23
2018-06-21T05:26:49.388Z,7.47
2018-06-21T05:27:20.606Z,7.40
2018-06-21T05:27:51.837Z,7.47
2018-06-21T05:28:23.073Z,7.37
2018-06-21T05:28:54.256Z,7.97
2018-06-21T05:29:25.435Z,7.08
2018-06-21T05:29:56.673Z,11.38
2018-06-21T05:30:27.854Z,8.75
2018-06-21T05:30:59.034Z,8.25
2018-06-21T05:31:30.209Z,8.48
2018-06-21T05:32:01.535Z,9.10
2018-06-21T05:32:32.708Z,8.30
2018-06-21T05:33:03.880Z,7.60
2018-06-21T05:33:35.057Z,7.60
2018-06-21T05:34:06.233Z,7.83
2018-06-21T05:34:37.416Z,7.90
2018-06-21T05:35:08.624Z,7.33
2018-06-21T05:35:39.833Z,11.63
2018-06-21T05:36:11.101Z,22.65
2018-06-21T05:36:42.274Z,10.30
2018-06-21T05:37:13.445Z,11.88
2018-06-21T05:37:44.612Z,10.98
2018-06-21T05:38:15.781Z,6.83
2018-06-21T05:38:46.956Z,7.87
2018-06-21T05:39:18.153Z,7.25
2018-06-21T05:39:49.427Z,7.90
2018-06-21T05:40:20.653Z,7.70
2018-06-21T05:40:51.886Z,8.05
2018-06-21T05:41:23.072Z,7.58
2018-06-21T05:41:54.249Z,7.37
2018-06-21T05:42:25.482Z,7.50
2018-06-21T05:42:56.770Z,8.18
2018-06-21T05:43:27.958Z,7.92
2018-06-21T05:43:59.165Z,7.80
2018-06-21T05:44:30.441Z,7.60
2018-06-21T05:45:01.697Z,16.60
2018-06-21T05:45:32.878Z,17.70
2018-06-21T05:46:04.046Z,13.32
2018-06-21T05:46:35.213Z,8.15
2018-06-21T05:47:06.417Z,7.85
2018-06-21T05:47:37.597Z,7.90
2018-06-21T05:48:08.853Z,8.13
2018-06-21T05:48:40.031Z,8.13
2018-06-21T05:49:11.208Z,8.45
2018-06-21T05:49:42.398Z,7.83
2018-06-21T05:50:13.646Z,7.58
2018-06-21T05:50:44.845Z,7.17
2018-06-21T05:51:16.017Z,7.95
2018-06-21T05:51:47.222Z,7.72
2018-06-21T05:52:18.392Z,7.92
2018-06-21T05:52:49.614Z,8.20
2018-06-21T05:53:20.797Z,7.92
2018-06-21T05:53:52.026Z,7.60
2018-06-21T05:54:23.197Z,7.90
2018-06-21T05:54:54.371Z,7.58
2018-06-21T05:55:25.571Z,7.67
2018-06-21T05:55:56.737Z,8.00
2018-06-21T05:56:27.956Z,9.10
2018-06-21T05:56:59.142Z,10.18
2018-06-21T05:57:30.394Z,9.00
2018-06-21T05:58:01.581Z,8.23
2018-06-21T05:58:32.766Z,7.75
2018-06-21T05:59:03.976Z,8.20
2018-06-21T05:59:35.197Z,7.33
2018-06-21T06:00:06.395Z,7.28
2018-06-21T06:00:37.570Z,7.15
2018-06-21T06:01:08.739Z,7.47
2018-06-21T06:01:39.915Z,7.45
2018-06-21T06:02:11.085Z,7.90
2018-06-21T06:02:42.381Z,7.85
2018-06-21T06:03:13.568Z,7.60
2018-06-21T06:03:44.748Z,7.60
2018-06-21T06:04:15.916Z,7.28
2018-06-21T06:04:47.179Z,7.90
2018-06-21T06:05:18.360Z,7.70
2018-06-21T06:05:49.578Z,7.15
2018-06-21T06:06:20.763Z,7.97
2018-06-21T06:06:51.936Z,7.30
2018-06-21T06:07:23.116Z,7.80
2018-06-21T06:07:54.288Z,7.60
2018-06-21T06:08:25.528Z,8.10
2018-06-21T06:08:56.749Z,7.28
2018-06-21T06:09:27.990Z,7.53
2018-06-21T06:09:59.279Z,7.22
2018-06-21T06:10:30.457Z,7.55
2018-06-21T06:11:01.646Z,7.25
2018-06-21T06:11:32.913Z,7.67
2018-06-21T06:12:06.298Z,7.50
2018-06-21T06:12:37.496Z,7.03
2018-06-21T06:13:08.725Z,7.12
2018-06-21T06:13:39.952Z,6.70
2018-06-21T06:14:11.195Z,6.95
2018-06-21T06:14:42.406Z,7.10
2018-06-21T06:15:13.632Z,7.20
2018-06-21T06:15:44.815Z,7.62
2018-06-21T06:16:16.038Z,7.62
2018-06-21T06:16:47.253Z,7.62
2018-06-21T06:17:18.485Z,7.10
2018-06-21T06:17:49.742Z,7.33
2018-06-21T06:18:20.930Z,7.42
2018-06-21T06:18:52.125Z,7.45
2018-06-21T06:19:23.358Z,7.80
2018-06-21T06:19:54.655Z,7.65
2018-06-21T06:20:25.900Z,8.53
2018-06-21T06:20:57.137Z,7.40
2018-06-21T06:21:28.334Z,8.00
2018-06-21T06:21:59.580Z,7.47
2018-06-21T06:22:30.774Z,7.67
2018-06-21T06:23:02.025Z,7.58
2018-06-21T06:23:33.212Z,7.65
2018-06-21T06:24:04.405Z,7.08
2018-06-21T06:24:35.578Z,7.60
2018-06-21T06:25:06.848Z,7.45
2018-06-21T06:25:38.122Z,7.62
2018-06-21T06:26:09.365Z,7.65
2018-06-21T06:26:40.620Z,7.50
2018-06-21T06:27:11.840Z,7.78
2018-06-21T06:27:43.103Z,7.00
2018-06-21T06:28:14.341Z,6.92
2018-06-21T06:28:45.619Z,7.50
2018-06-21T06:29:16.832Z,6.90
2018-06-21T06:29:48.018Z,6.30
2018-06-21T06:30:19.203Z,6.92
2018-06-21T06:30:50.403Z,6.78
2018-06-21T06:31:21.592Z,6.62
2018-06-21T06:31:52.828Z,6.90
2018-06-21T06:32:24.121Z,6.65
2018-06-21T06:32:55.389Z,6.67
2018-06-21T06:33:26.566Z,6.55
2018-06-21T06:33:57.809Z,6.28
2018-06-21T06:34:29.034Z,6.95
2018-06-21T06:35:00.254Z,6.50
2018-06-21T06:35:31.498Z,7.30
2018-06-21T06:36:02.671Z,6.42
2018-06-21T06:36:33.850Z,6.35
2018-06-21T06:37:05.026Z,6.70
2018-06-21T06:37:36.197Z,6.40
2018-06-21T06:38:07.416Z,6.25
2018-06-21T06:38:38.597Z,6.55
2018-06-21T06:39:09.834Z,7.12
2018-06-21T06:39:41.093Z,7.05
2018-06-21T06:40:12.338Z,6.83
2018-06-21T06:40:43.577Z,7.55
2018-06-21T06:41:14.777Z,7.40
2018-06-21T06:41:45.955Z,8.05
2018-06-21T06:42:17.137Z,7.47
2018-06-21T06:42:48.370Z,7.53
2018-06-21T06:43:19.616Z,7.50
2018-06-21T06:43:50.911Z,7.55
2018-06-21T06:44:22.096Z,7.15
2018-06-21T06:44:53.285Z,7.22
2018-06-21T06:45:24.512Z,7.20
2018-06-21T06:45:55.791Z,7.50
2018-06-21T06:46:26.984Z,7.85
2018-06-21T06:46:58.176Z,7.35
2018-06-21T06:47:29.357Z,7.30
2018-06-21T06:48:00.536Z,7.15
2018-06-21T06:48:31.777Z,7.22
2018-06-21T06:49:03.063Z,7.15
2018-06-21T06:49:34.264Z,7.15
2018-06-21T06:50:05.545Z,6.85
2018-06-21T06:50:36.742Z,6.12
2018-06-21T06:51:07.985Z,7.30
2018-06-21T06:51:39.169Z,6.85
2018-06-21T06:52:10.498Z,6.42
2018-06-21T06:52:41.730Z,6.37